Time;durP1;ratioP1;P1;durP2;ratioP2;P2;SDS_P1;SDS_P2;PMS_P1;PMS_P2;Temp;Humidity;BMP_temperature;BMP_pressure;BME280_temperature;BME280_humidity;BME280_pressure;Samples;Min_cycle;Max_cycle;Signal;HPM_P1;HPM_P2
2022/01/08 00:00:37;;;;;;;8.27;4.73;;;2.20;99.90;;;;;;5062883;28;20182;-48
2022/01/08 00:03:05;;;;;;;6.03;4.53;;;2.20;99.90;;;;;;5063726;28;20202;-46
2022/01/08 00:05:32;;;;;;;6.67;4.50;;;2.20;99.90;;;;;;5057132;28;20198;-47
2022/01/08 00:07:59;;;;;;;5.80;4.23;;;2.10;99.90;;;;;;5064071;28;20243;-46
2022/01/08 00:10:25;;;;;;;8.33;4.47;;;2.10;99.90;;;;;;5048923;28;23358;-48
2022/01/08 00:12:52;;;;;;;3.90;3.50;;;2.10;99.90;;;;;;5055954;28;20218;-47
2022/01/08 00:15:21;;;;;;;6.87;4.17;;;2.10;99.90;;;;;;5060440;28;20660;-48
2022/01/08 00:17:48;;;;;;;5.57;3.57;;;2.10;99.90;;;;;;5064162;28;20182;-50
2022/01/08 00:20:17;;;;;;;4.83;4.33;;;2.10;99.90;;;;;;5057960;28;20697;-49
2022/01/08 00:22:44;;;;;;;5.53;4.20;;;2.10;99.90;;;;;;5063337;28;20209;-48
2022/01/08 00:25:12;;;;;;;6.70;4.60;;;2.10;99.90;;;;;;5062093;28;20222;-45
2022/01/08 00:27:39;;;;;;;7.67;4.27;;;2.00;99.90;;;;;;5051026;28;20198;-49
2022/01/08 00:30:07;;;;;;;5.50;4.57;;;2.10;99.90;;;;;;5062892;28;20207;-47
2022/01/08 00:32:35;;;;;;;6.17;5.50;;;2.10;99.90;;;;;;5061675;28;20967;-45
2022/01/08 00:35:01;;;;;;;6.13;4.63;;;2.10;99.90;;;;;;5063851;28;20187;-45
2022/01/08 00:37:29;;;;;;;6.43;5.47;;;2.10;99.90;;;;;;5055463;28;21012;-48
2022/01/08 00:39:56;;;;;;;6.23;4.23;;;2.10;99.90;;;;;;5063811;28;20191;-49
2022/01/08 00:42:23;;;;;;;7.43;5.03;;;2.10;99.90;;;;;;5048362;28;20273;-49
2022/01/08 00:44:50;;;;;;;8.17;4.77;;;2.10;99.90;;;;;;5063597;28;20221;-49
2022/01/08 00:47:17;;;;;;;6.53;5.30;;;2.10;99.90;;;;;;5060249;28;20195;-47
2022/01/08 00:49:44;;;;;;;7.63;5.47;;;2.10;99.90;;;;;;5063131;28;20560;-48
2022/01/08 00:52:11;;;;;;;6.33;5.50;;;2.10;99.90;;;;;;5056732;28;20217;-46
2022/01/08 00:54:39;;;;;;;7.50;5.20;;;2.10;99.90;;;;;;5062115;28;20982;-45
2022/01/08 00:57:06;;;;;;;6.63;5.57;;;2.10;99.90;;;;;;5057431;28;20195;-47
2022/01/08 00:59:33;;;;;;;8.13;6.17;;;2.10;99.90;;;;;;5055320;28;20470;-46
2022/01/08 01:02:01;;;;;;;7.13;5.30;;;2.10;99.90;;;;;;5063715;28;20201;-47
2022/01/08 01:04:28;;;;;;;8.70;6.10;;;2.10;99.90;;;;;;5059753;28;20206;-47
2022/01/08 01:06:55;;;;;;;7.73;5.63;;;2.10;99.90;;;;;;5058390;28;20209;-47
2022/01/08 01:09:21;;;;;;;6.47;5.47;;;2.10;99.90;;;;;;5059414;28;20745;-45
2022/01/08 01:11:51;;;;;;;6.37;5.37;;;2.10;99.90;;;;;;5063581;28;20195;-45
2022/01/08 01:14:18;;;;;;;6.47;5.87;;;2.10;99.90;;;;;;5048371;28;20704;-51
2022/01/08 01:16:45;;;;;;;6.20;5.43;;;2.10;99.90;;;;;;5063165;28;20724;-49
2022/01/08 01:19:12;;;;;;;7.53;6.17;;;2.10;99.90;;;;;;5061224;28;20210;-47
2022/01/08 01:21:38;;;;;;;6.87;5.97;;;2.10;99.90;;;;;;5057347;28;20213;-47
2022/01/08 01:24:12;;;;;;;8.07;6.50;;;2.10;99.90;;;;;;5062244;28;20225;-47
2022/01/08 01:26:48;;;;;;;9.57;6.60;;;2.10;99.90;;;;;;5062279;28;20246;-48
2022/01/08 01:29:30;;;;;;;10.03;6.03;;;2.10;99.90;;;;;;5049044;28;20202;-46
2022/01/08 01:43:21;;;;;;;10.20;7.33;;;2.20;99.90;;;;;;5063200;28;20210;-46
2022/01/08 01:48:34;;;;;;;10.17;8.10;;;2.20;99.90;;;;;;5060913;28;20193;-45
2022/01/08 01:51:01;;;;;;;10.33;7.97;;;2.20;99.90;;;;;;5062919;28;20198;-47
2022/01/08 01:53:28;;;;;;;12.93;8.63;;;2.20;99.90;;;;;;5054720;28;20997;-48
2022/01/08 01:55:55;;;;;;;12.57;8.93;;;2.20;99.90;;;;;;5062843;28;20203;-46
2022/01/08 01:58:22;;;;;;;11.87;8.10;;;2.20;99.90;;;;;;5059058;28;20854;-46
2022/01/08 02:00:51;;;;;;;15.57;9.17;;;2.20;99.90;;;;;;5052441;28;20221;-46
2022/01/08 02:03:18;;;;;;;11.67;8.57;;;2.20;99.90;;;;;;5063158;28;20553;-49
2022/01/08 02:05:46;;;;;;;13.87;9.00;;;2.20;99.90;;;;;;5066628;28;20191;-49
2022/01/08 02:08:14;;;;;;;15.83;9.07;;;2.20;99.90;;;;;;5064156;28;20269;-48
2022/01/08 02:10:41;;;;;;;11.07;9.03;;;2.20;99.90;;;;;;5061180;28;20207;-48
2022/01/08 02:13:09;;;;;;;9.07;7.43;;;2.20;99.90;;;;;;5064739;28;20297;-46
2022/01/08 02:15:36;;;;;;;10.67;8.80;;;2.20;99.90;;;;;;5052988;28;20980;-48
2022/01/08 02:18:05;;;;;;;13.40;9.47;;;2.20;99.90;;;;;;5065689;28;20194;-47
2022/01/08 02:20:33;;;;;;;9.97;7.87;;;2.20;99.90;;;;;;5063508;28;20179;-49
2022/01/08 02:23:00;;;;;;;11.17;8.47;;;2.20;99.90;;;;;;5066403;28;20210;-47
2022/01/08 02:25:27;;;;;;;9.50;7.70;;;2.20;99.90;;;;;;5057657;28;20260;-47
2022/01/08 02:27:54;;;;;;;7.97;6.47;;;2.20;99.90;;;;;;5066224;28;20198;-47
2022/01/08 02:30:21;;;;;;;7.50;5.57;;;2.20;99.90;;;;;;5050862;28;21565;-45
2022/01/08 02:32:47;;;;;;;7.37;6.67;;;2.20;99.90;;;;;;5065664;28;20195;-48
2022/01/08 02:35:16;;;;;;;8.77;6.73;;;2.20;99.90;;;;;;5063223;28;20183;-47
2022/01/08 02:37:44;;;;;;;10.00;6.80;;;2.20;99.90;;;;;;5065652;28;20217;-50
2022/01/08 02:40:12;;;;;;;12.87;6.20;;;2.20;99.90;;;;;;5062000;28;20652;-48
2022/01/08 02:42:49;;;;;;;10.80;6.80;;;2.20;99.90;;;;;;5062778;28;20918;-50
2022/01/08 02:45:17;;;;;;;9.50;6.93;;;2.20;99.90;;;;;;5062791;28;20198;-50
2022/01/08 02:47:44;;;;;;;8.50;6.37;;;2.20;99.90;;;;;;5054082;28;20235;-48
2022/01/08 02:50:11;;;;;;;7.00;6.30;;;2.20;99.90;;;;;;5063698;28;20187;-48
2022/01/08 02:52:41;;;;;;;7.53;6.30;;;2.20;99.90;;;;;;5064532;28;20191;-47
2022/01/08 02:55:11;;;;;;;8.23;6.20;;;2.20;99.90;;;;;;5064185;28;20221;-49
2022/01/08 02:57:38;;;;;;;6.87;5.70;;;2.20;99.90;;;;;;5059226;28;20194;-46
2022/01/08 03:00:06;;;;;;;6.43;5.73;;;2.20;99.90;;;;;;5064961;28;20191;-50
2022/01/08 03:02:34;;;;;;;7.50;5.70;;;2.20;99.90;;;;;;5053460;28;20198;-48
2022/01/08 03:05:01;;;;;;;5.97;5.37;;;2.20;99.90;;;;;;5065225;28;20205;-48
2022/01/08 03:07:28;;;;;;;8.80;5.57;;;2.20;99.90;;;;;;5061573;28;20194;-45
2022/01/08 03:09:57;;;;;;;6.83;6.13;;;2.20;99.90;;;;;;5065603;28;20198;-49
2022/01/08 03:12:28;;;;;;;7.53;5.17;;;2.20;99.90;;;;;;5056198;28;20858;-46
2022/01/08 03:14:55;;;;;;;6.37;5.07;;;2.20;99.90;;;;;;5047652;28;20242;-49
2022/01/08 03:17:23;;;;;;;8.80;5.47;;;2.20;99.90;;;;;;5035275;28;20307;-48
2022/01/08 03:19:52;;;;;;;7.10;5.07;;;2.20;99.90;;;;;;5065194;28;20552;-47
2022/01/08 03:22:19;;;;;;;6.93;5.07;;;2.20;99.90;;;;;;5061637;28;20191;-49
2022/01/08 03:24:46;;;;;;;6.73;4.77;;;2.20;99.90;;;;;;5065313;28;20305;-46
2022/01/08 03:27:13;;;;;;;8.87;5.57;;;2.20;99.90;;;;;;5056307;28;20186;-48
2022/01/08 03:29:42;;;;;;;7.90;5.83;;;2.30;99.90;;;;;;5065372;28;20942;-45
2022/01/08 03:32:09;;;;;;;7.90;5.30;;;2.30;99.90;;;;;;5052170;28;20561;-45
2022/01/08 03:34:36;;;;;;;7.90;5.00;;;2.30;99.90;;;;;;5063812;28;20215;-50
2022/01/08 03:37:03;;;;;;;6.80;5.10;;;2.30;99.90;;;;;;5062607;28;20690;-47
2022/01/08 03:39:30;;;;;;;6.53;5.03;;;2.30;99.90;;;;;;5063764;28;20898;-44
2022/01/08 03:41:57;;;;;;;8.67;5.70;;;2.30;99.90;;;;;;5063291;28;20205;-51
2022/01/08 03:44:24;;;;;;;6.80;4.80;;;2.30;99.90;;;;;;5058850;28;20481;-48
2022/01/08 03:46:52;;;;;;;8.33;5.10;;;2.30;99.90;;;;;;5064560;28;20244;-50
2022/01/08 03:49:29;;;;;;;8.00;5.70;;;2.30;99.90;;;;;;5049672;28;20195;-50
2022/01/08 03:51:57;;;;;;;7.40;5.57;;;2.30;99.90;;;;;;5055955;28;20693;-47
2022/01/08 03:54:24;;;;;;;7.77;6.10;;;2.30;99.90;;;;;;5061824;28;20222;-47
2022/01/08 03:56:51;;;;;;;7.27;5.60;;;2.20;99.90;;;;;;5064368;28;20191;-50
2022/01/08 03:59:18;;;;;;;6.20;5.37;;;2.20;99.90;;;;;;5056293;28;20199;-46
2022/01/08 04:01:46;;;;;;;6.73;5.47;;;2.20;99.90;;;;;;5064701;28;20210;-45
2022/01/08 04:04:14;;;;;;;7.90;6.23;;;2.20;99.90;;;;;;5048953;28;20226;-45
2022/01/08 04:06:41;;;;;;;8.93;6.10;;;2.20;99.90;;;;;;5064033;28;20195;-49
2022/01/08 04:09:08;;;;;;;9.43;5.77;;;2.20;99.90;;;;;;5061323;28;20199;-49
2022/01/08 04:11:34;;;;;;;10.73;6.30;;;2.20;99.90;;;;;;5063830;28;20643;-49
2022/01/08 04:14:01;;;;;;;9.43;7.17;;;2.20;99.90;;;;;;5057585;28;20226;-47
2022/01/08 04:16:31;;;;;;;10.17;7.73;;;2.20;99.90;;;;;;5062245;28;20175;-48
2022/01/08 04:18:59;;;;;;;8.50;6.73;;;2.20;99.90;;;;;;5062900;28;20206;-50
2022/01/08 04:24:12;;;;;;;10.70;8.27;;;2.20;99.90;;;;;;5053749;28;20571;-47
2022/01/08 04:26:39;;;;;;;9.90;7.40;;;2.20;99.90;;;;;;5063616;28;20222;-47
2022/01/08 04:29:07;;;;;;;11.40;7.53;;;2.30;99.90;;;;;;5058630;28;20201;-48
2022/01/08 04:31:34;;;;;;;12.13;8.63;;;2.20;99.90;;;;;;5062309;28;20663;-46
2022/01/08 04:34:01;;;;;;;13.77;8.53;;;2.20;99.90;;;;;;5062053;28;20265;-51
2022/01/08 04:36:29;;;;;;;13.67;8.90;;;2.20;99.90;;;;;;5050601;28;20319;-49
2022/01/08 04:38:56;;;;;;;14.47;8.10;;;2.30;99.90;;;;;;5063170;28;20186;-47
2022/01/08 04:41:23;;;;;;;11.73;8.80;;;2.20;99.90;;;;;;5061094;28;20939;-47
2022/01/08 04:43:50;;;;;;;14.53;9.13;;;2.20;99.90;;;;;;5063811;28;20244;-48
2022/01/08 04:46:17;;;;;;;11.80;8.93;;;2.20;99.90;;;;;;5054861;28;20297;-46
2022/01/08 04:48:44;;;;;;;13.20;7.30;;;2.20;99.90;;;;;;5063670;28;20198;-48
2022/01/08 04:51:11;;;;;;;14.60;9.20;;;2.20;99.90;;;;;;5049068;28;20623;-49
2022/01/08 04:53:39;;;;;;;13.43;8.17;;;2.20;99.90;;;;;;5061353;28;20246;-46
2022/01/08 04:56:06;;;;;;;13.53;8.53;;;2.20;99.90;;;;;;5060673;28;20195;-47
2022/01/08 04:58:32;;;;;;;13.13;8.67;;;2.20;99.90;;;;;;5062627;28;20674;-48
2022/01/08 05:00:59;;;;;;;11.43;8.83;;;2.20;99.90;;;;;;5057612;28;20206;-47
2022/01/08 05:03:26;;;;;;;14.40;8.27;;;2.20;99.90;;;;;;5061581;28;20206;-44
2022/01/08 05:05:53;;;;;;;13.60;8.77;;;2.20;99.90;;;;;;5063355;28;20548;-46
2022/01/08 05:08:20;;;;;;;9.23;8.23;;;2.20;99.90;;;;;;5048703;28;20207;-49
2022/01/08 05:10:48;;;;;;;12.67;7.20;;;2.20;99.90;;;;;;5063402;28;20195;-46
2022/01/08 05:13:15;;;;;;;13.20;8.80;;;2.20;99.90;;;;;;5059299;28;20226;-45
2022/01/08 05:15:42;;;;;;;12.00;7.53;;;2.20;99.90;;;;;;5058700;28;20218;-46
2022/01/08 05:18:10;;;;;;;12.13;7.93;;;2.30;99.90;;;;;;5059869;28;20241;-45
2022/01/08 05:20:40;;;;;;;13.17;8.20;;;2.20;99.90;;;;;;5063392;28;20203;-47
2022/01/08 05:23:07;;;;;;;11.87;8.00;;;2.20;99.90;;;;;;5051622;28;20618;-47
2022/01/08 05:25:35;;;;;;;13.93;8.77;;;2.30;99.90;;;;;;5060965;28;20571;-49
2022/01/08 05:28:03;;;;;;;15.30;8.47;;;2.30;99.90;;;;;;5061060;28;20197;-49
2022/01/08 05:30:31;;;;;;;12.60;8.50;;;2.30;99.90;;;;;;5057257;28;20295;-50
2022/01/08 05:32:57;;;;;;;20.07;9.73;;;2.30;99.90;;;;;;5062113;28;20218;-47
2022/01/08 05:35:26;;;;;;;12.80;8.43;;;2.30;99.90;;;;;;5060821;28;20214;-48
2022/01/08 05:37:53;;;;;;;10.20;7.50;;;2.30;99.90;;;;;;5066969;28;20190;-47
2022/01/08 05:40:21;;;;;;;16.00;7.90;;;2.30;99.90;;;;;;5052301;28;20198;-49
2022/01/08 05:42:48;;;;;;;11.63;6.83;;;2.30;99.90;;;;;;5067187;28;20240;-48
2022/01/08 05:45:16;;;;;;;11.07;8.03;;;2.30;99.90;;;;;;5063094;28;20178;-52
2022/01/08 05:47:44;;;;;;;12.17;7.73;;;2.30;99.90;;;;;;5062296;28;20213;-49
2022/01/08 05:50:11;;;;;;;15.77;8.43;;;2.30;99.90;;;;;;5063427;28;20860;-50
2022/01/08 05:52:39;;;;;;;10.63;7.20;;;2.30;99.90;;;;;;5066942;28;20828;-45
2022/01/08 05:55:06;;;;;;;10.97;8.27;;;2.30;99.90;;;;;;5052744;28;20288;-46
2022/01/08 05:57:33;;;;;;;12.27;7.30;;;2.30;99.90;;;;;;5065948;28;20212;-46
2022/01/08 06:00:01;;;;;;;12.53;8.10;;;2.40;99.90;;;;;;5065229;28;20197;-47
2022/01/08 06:02:36;;;;;;;15.07;8.70;;;2.30;99.90;;;;;;5061979;28;20280;-45
2022/01/08 06:05:04;;;;;;;14.03;8.67;;;2.30;99.90;;;;;;5064687;28;20187;-49
2022/01/08 06:07:31;;;;;;;9.83;7.77;;;2.40;99.90;;;;;;5065210;28;20419;-46
2022/01/08 06:09:58;;;;;;;14.20;8.17;;;2.40;99.90;;;;;;5061192;28;20195;-45
2022/01/08 06:12:25;;;;;;;17.10;8.37;;;2.40;99.90;;;;;;5055969;28;20290;-47
2022/01/08 06:14:51;;;;;;;11.97;7.47;;;2.40;99.90;;;;;;5066456;28;20234;-49
2022/01/08 06:17:18;;;;;;;13.07;7.37;;;2.40;99.90;;;;;;5057860;28;20284;-45
2022/01/08 06:19:47;;;;;;;15.20;7.33;;;2.40;99.90;;;;;;5066592;28;20193;-45
2022/01/08 06:22:15;;;;;;;9.50;7.33;;;2.40;99.90;;;;;;5062405;28;20191;-49
2022/01/08 06:24:42;;;;;;;12.20;8.70;;;2.50;99.90;;;;;;5066396;28;20610;-50
2022/01/08 06:27:09;;;;;;;13.43;8.20;;;2.40;99.90;;;;;;5051270;28;20677;-46
2022/01/08 06:29:36;;;;;;;13.67;8.63;;;2.40;99.90;;;;;;5066039;28;20202;-46
2022/01/08 06:32:03;;;;;;;13.63;8.10;;;2.50;99.90;;;;;;5062059;28;20691;-48
2022/01/08 06:34:30;;;;;;;14.90;9.43;;;2.50;99.90;;;;;;5062253;28;20224;-45
2022/01/08 06:36:59;;;;;;;18.37;9.50;;;2.50;99.90;;;;;;5055688;28;20337;-46
2022/01/08 06:39:25;;;;;;;14.90;7.80;;;2.50;99.90;;;;;;5064005;28;20184;-48
2022/01/08 06:41:52;;;;;;;10.10;7.00;;;2.50;99.90;;;;;;5045493;28;20345;-44
2022/01/08 06:44:19;;;;;;;13.37;9.40;;;2.40;99.90;;;;;;5060819;28;20213;-46
2022/01/08 06:46:46;;;;;;;19.43;9.87;;;2.40;99.90;;;;;;5058219;28;20183;-46
2022/01/08 06:49:13;;;;;;;11.23;7.50;;;2.40;99.90;;;;;;5058808;28;20213;-48
2022/01/08 06:51:39;;;;;;;13.73;8.83;;;2.40;99.90;;;;;;5060227;28;20199;-48
2022/01/08 06:54:07;;;;;;;13.93;9.43;;;2.40;99.90;;;;;;5052348;28;20214;-47
2022/01/08 06:56:34;;;;;;;15.93;9.10;;;2.40;99.90;;;;;;5058916;28;20202;-47
2022/01/08 06:59:01;;;;;;;11.17;8.33;;;2.40;99.90;;;;;;5050525;28;20969;-47
2022/01/08 07:01:28;;;;;;;11.00;7.70;;;2.40;99.90;;;;;;5056420;28;20190;-47
2022/01/08 07:03:55;;;;;;;11.20;6.10;;;2.40;99.90;;;;;;5050675;28;20226;-46
2022/01/08 07:06:22;;;;;;;11.83;7.43;;;2.40;99.90;;;;;;5048326;28;20747;-45
2022/01/08 07:08:49;;;;;;;10.40;7.80;;;2.40;99.90;;;;;;5052708;28;20281;-46
2022/01/08 07:11:18;;;;;;;8.93;7.00;;;2.40;99.90;;;;;;5063296;28;20191;-47
2022/01/08 07:13:44;;;;;;;14.80;7.67;;;2.40;99.90;;;;;;5048307;28;20231;-48
2022/01/08 07:16:11;;;;;;;10.47;7.57;;;2.40;99.90;;;;;;5053258;28;20297;-48
2022/01/08 07:18:38;;;;;;;14.53;9.23;;;2.40;99.90;;;;;;5054969;28;20217;-47
2022/01/08 07:21:06;;;;;;;12.50;8.80;;;2.40;99.90;;;;;;5052715;28;20195;-49
2022/01/08 07:23:32;;;;;;;13.93;8.80;;;2.40;99.90;;;;;;5052876;28;20923;-47
2022/01/08 07:25:59;;;;;;;14.00;8.83;;;2.40;99.90;;;;;;5049970;28;20205;-44
2022/01/08 07:28:27;;;;;;;13.10;9.40;;;2.40;99.90;;;;;;5037715;28;20218;-48
2022/01/08 07:30:54;;;;;;;13.70;9.17;;;2.40;99.90;;;;;;5052170;28;20202;-46
2022/01/08 07:33:20;;;;;;;11.70;9.03;;;2.40;99.90;;;;;;5050571;28;20226;-47
2022/01/08 07:35:47;;;;;;;13.53;8.60;;;2.40;99.90;;;;;;5054053;28;20694;-45
2022/01/08 07:38:14;;;;;;;13.40;9.07;;;2.50;99.90;;;;;;5051497;28;20207;-45
2022/01/08 07:40:41;;;;;;;15.07;9.57;;;2.50;99.90;;;;;;5054875;28;20198;-45
2022/01/08 07:43:08;;;;;;;10.97;7.90;;;2.50;99.90;;;;;;5063775;28;20218;-48
2022/01/08 07:45:36;;;;;;;13.27;9.13;;;2.50;99.90;;;;;;5041999;28;20202;-49
2022/01/08 07:48:02;;;;;;;14.77;8.50;;;2.50;99.90;;;;;;5063712;28;20217;-46
2022/01/08 07:50:29;;;;;;;15.73;9.00;;;2.50;99.90;;;;;;5045421;28;20275;-49
2022/01/08 07:52:56;;;;;;;14.67;8.80;;;2.50;99.90;;;;;;5046944;28;20226;-48
2022/01/08 07:55:23;;;;;;;15.67;8.87;;;2.50;99.90;;;;;;5057151;28;20271;-49
2022/01/08 07:57:49;;;;;;;16.10;9.93;;;2.50;99.90;;;;;;5048574;28;20199;-44
2022/01/08 08:00:17;;;;;;;16.57;8.43;;;2.50;99.90;;;;;;5035478;28;20288;-45
2022/01/08 08:02:45;;;;;;;15.97;9.23;;;2.50;99.90;;;;;;5060160;28;20203;-44
2022/01/08 08:05:13;;;;;;;12.83;8.97;;;2.50;99.90;;;;;;5052796;28;20207;-48
2022/01/08 08:07:41;;;;;;;15.17;8.57;;;2.50;99.90;;;;;;5057290;28;20396;-46
2022/01/08 08:10:10;;;;;;;15.70;9.07;;;2.50;99.90;;;;;;5058458;28;20202;-45
2022/01/08 08:12:37;;;;;;;11.67;8.63;;;2.60;99.90;;;;;;5048585;28;20398;-48
2022/01/08 08:15:05;;;;;;;11.40;9.47;;;2.60;99.90;;;;;;5057195;28;20675;-46
2022/01/08 08:17:33;;;;;;;16.40;10.53;;;2.60;99.90;;;;;;5048784;28;20998;-48
2022/01/08 08:20:01;;;;;;;14.93;9.67;;;2.60;99.90;;;;;;5052879;28;20203;-45
2022/01/08 08:22:27;;;;;;;13.73;8.30;;;2.60;99.90;;;;;;5052834;28;20194;-45
2022/01/08 08:24:54;;;;;;;17.20;10.37;;;2.60;99.90;;;;;;5054162;28;20240;-46
2022/01/08 08:27:21;;;;;;;16.53;9.97;;;2.60;99.90;;;;;;5047527;28;20203;-45
2022/01/08 08:29:48;;;;;;;17.13;10.63;;;2.60;99.90;;;;;;5058891;28;20195;-44
2022/01/08 08:32:15;;;;;;;16.97;10.03;;;2.60;99.90;;;;;;5050329;28;20203;-48
2022/01/08 08:34:42;;;;;;;16.03;10.50;;;2.60;99.90;;;;;;5060860;28;20209;-45
2022/01/08 08:37:10;;;;;;;18.73;11.07;;;2.60;99.90;;;;;;5053712;28;20195;-44
2022/01/08 08:39:36;;;;;;;16.07;9.50;;;2.60;99.90;;;;;;5042794;28;20194;-45
2022/01/08 08:42:04;;;;;;;22.50;10.97;;;2.60;99.90;;;;;;5054937;28;20203;-50
2022/01/08 08:44:32;;;;;;;18.83;10.30;;;2.60;99.90;;;;;;5046776;28;20974;-48
2022/01/08 08:46:59;;;;;;;15.53;10.70;;;2.60;99.90;;;;;;5062954;28;20206;-45
2022/01/08 08:49:27;;;;;;;16.40;9.80;;;2.60;99.90;;;;;;5041533;28;20199;-44
2022/01/08 08:51:54;;;;;;;17.53;9.73;;;2.70;99.90;;;;;;5048690;28;20229;-44
2022/01/08 08:54:23;;;;;;;16.93;10.53;;;2.70;99.90;;;;;;5047452;28;20269;-44
2022/01/08 08:56:50;;;;;;;20.37;11.43;;;2.70;99.90;;;;;;5046360;28;20241;-45
2022/01/08 08:59:16;;;;;;;20.93;10.80;;;2.70;99.90;;;;;;5051269;28;20209;-46
2022/01/08 09:01:43;;;;;;;17.70;11.37;;;2.70;99.90;;;;;;5058779;28;20208;-44
2022/01/08 09:04:10;;;;;;;17.90;11.17;;;2.70;99.90;;;;;;5047322;28;20241;-45
2022/01/08 09:06:37;;;;;;;16.60;8.63;;;2.70;99.90;;;;;;5054914;28;20240;-45
2022/01/08 09:09:04;;;;;;;16.90;10.57;;;2.70;99.90;;;;;;5055167;28;20205;-47
2022/01/08 09:11:34;;;;;;;18.10;11.17;;;2.80;99.90;;;;;;5049726;28;20353;-46
2022/01/08 09:14:00;;;;;;;14.63;8.60;;;2.80;99.90;;;;;;5058282;28;20227;-44
2022/01/08 09:16:27;;;;;;;15.57;10.30;;;2.70;99.90;;;;;;5059037;28;20209;-46
2022/01/08 09:18:54;;;;;;;16.57;10.37;;;2.80;99.90;;;;;;5051994;28;20211;-47
2022/01/08 09:21:22;;;;;;;19.17;10.70;;;2.80;99.90;;;;;;5059957;28;20198;-45
2022/01/08 09:23:49;;;;;;;17.57;10.57;;;2.80;99.90;;;;;;5058238;28;20225;-45
2022/01/08 09:26:15;;;;;;;13.80;8.83;;;2.80;99.90;;;;;;5058980;28;20190;-45
2022/01/08 09:28:43;;;;;;;13.47;10.07;;;2.80;99.90;;;;;;5055083;28;20187;-46
2022/01/08 09:31:10;;;;;;;18.03;10.07;;;2.80;99.90;;;;;;5053905;28;20199;-48
2022/01/08 09:33:38;;;;;;;15.40;10.07;;;2.90;99.90;;;;;;5043355;28;20226;-49
2022/01/08 09:36:05;;;;;;;16.70;9.53;;;2.90;99.90;;;;;;5056735;28;20704;-45
2022/01/08 09:38:32;;;;;;;14.33;9.03;;;2.90;99.90;;;;;;5053144;28;20202;-46
2022/01/08 09:40:59;;;;;;;14.37;8.20;;;2.90;99.90;;;;;;5056831;28;20195;-47
2022/01/08 09:43:27;;;;;;;10.73;8.00;;;2.90;99.90;;;;;;5044766;28;20231;-48
2022/01/08 09:45:55;;;;;;;15.50;9.47;;;3.00;99.90;;;;;;5058423;28;20702;-50
2022/01/08 09:48:22;;;;;;;11.27;6.57;;;3.00;99.90;;;;;;5055390;28;20723;-50
2022/01/08 09:50:49;;;;;;;13.40;9.60;;;3.00;99.90;;;;;;5049834;28;20285;-48
2022/01/08 09:53:16;;;;;;;13.60;8.30;;;3.00;99.90;;;;;;5055999;28;20695;-47
2022/01/08 09:55:43;;;;;;;13.10;8.43;;;3.00;99.90;;;;;;5057352;28;20211;-45
2022/01/08 09:58:11;;;;;;;13.37;9.60;;;3.10;99.90;;;;;;5051522;28;20214;-45
2022/01/08 10:00:38;;;;;;;13.10;9.77;;;3.10;99.90;;;;;;5057514;28;20195;-45
2022/01/08 10:03:27;;;;;;;13.27;8.83;;;3.10;99.90;;;;;;5056851;28;20321;-45
2022/01/08 10:05:55;;;;;;;11.50;7.67;;;3.10;99.90;;;;;;5049665;28;20218;-48
2022/01/08 10:08:27;;;;;;;18.33;9.20;;;3.20;99.90;;;;;;5052722;28;20204;-51
2022/01/08 10:10:56;;;;;;;16.30;10.13;;;3.20;99.90;;;;;;5056688;28;20203;-49
2022/01/08 10:13:28;;;;;;;12.37;9.10;;;3.20;99.90;;;;;;5053427;28;20303;-47
2022/01/08 10:18:45;;;;;;;13.57;8.53;;;3.30;99.90;;;;;;5048963;28;20318;-51
2022/01/08 10:21:19;;;;;;;13.27;9.67;;;3.30;99.90;;;;;;5047397;28;20684;-49
2022/01/08 10:23:49;;;;;;;12.33;8.10;;;3.40;99.90;;;;;;5062058;28;20218;-52
2022/01/08 10:26:18;;;;;;;11.23;7.50;;;3.50;99.90;;;;;;5059365;28;20209;-50
2022/01/08 10:28:48;;;;;;;10.93;7.97;;;3.50;99.90;;;;;;5056903;28;20211;-51
2022/01/08 10:31:22;;;;;;;11.77;7.50;;;3.50;99.90;;;;;;5058931;28;20218;-49
2022/01/08 10:33:53;;;;;;;11.07;7.80;;;3.60;99.90;;;;;;5060304;28;20276;-52
2022/01/08 10:36:25;;;;;;;13.80;8.03;;;3.60;99.90;;;;;;5049688;28;20294;-50
2022/01/08 10:38:54;;;;;;;10.67;7.33;;;3.70;99.90;;;;;;5063923;28;20191;-49
2022/01/08 10:41:23;;;;;;;11.87;7.47;;;3.70;99.90;;;;;;5056886;28;20199;-48
2022/01/08 10:44:06;;;;;;;13.70;7.63;;;3.70;99.90;;;;;;5057035;28;20254;-53
2022/01/08 10:46:33;;;;;;;10.13;6.83;;;3.80;99.90;;;;;;5049138;28;20175;-50
2022/01/08 10:49:01;;;;;;;12.10;7.10;;;3.80;99.90;;;;;;5049181;28;20210;-48
2022/01/08 10:51:35;;;;;;;10.93;7.50;;;3.90;99.90;;;;;;5052859;28;20809;-51
2022/01/08 10:54:10;;;;;;;11.70;7.03;;;4.00;99.90;;;;;;5050732;28;20218;-46
2022/01/08 10:56:39;;;;;;;9.20;6.27;;;4.00;99.90;;;;;;5055317;28;20214;-46
2022/01/08 10:59:10;;;;;;;9.77;6.43;;;4.10;99.90;;;;;;5062311;28;20195;-48
2022/01/08 11:01:59;;;;;;;10.10;6.70;;;4.10;99.90;;;;;;5058664;28;20203;-48
2022/01/08 11:04:45;;;;;;;8.00;6.13;;;4.10;99.90;;;;;;5043782;28;20726;-50
2022/01/08 11:07:14;;;;;;;10.63;6.90;;;4.10;99.90;;;;;;5050627;28;20210;-49
2022/01/08 11:09:43;;;;;;;16.13;6.80;;;4.10;99.90;;;;;;5058234;28;20207;-46
2022/01/08 11:12:14;;;;;;;8.60;6.80;;;4.10;99.90;;;;;;5054133;28;20593;-50
2022/01/08 11:17:29;;;;;;;13.33;6.67;;;4.10;99.90;;;;;;5056043;28;20294;-46
2022/01/08 11:20:00;;;;;;;9.87;6.47;;;4.20;99.90;;;;;;5059052;28;20214;-46
2022/01/08 11:22:29;;;;;;;10.70;6.53;;;4.20;99.90;;;;;;5043892;28;20206;-50
2022/01/08 11:25:01;;;;;;;10.17;7.47;;;4.20;99.90;;;;;;5063828;28;20222;-46
2022/01/08 11:27:30;;;;;;;11.90;6.90;;;4.20;99.90;;;;;;5056213;28;20199;-46
2022/01/08 11:30:05;;;;;;;13.03;6.77;;;4.20;99.90;;;;;;5064962;28;20198;-46
2022/01/08 11:32:35;;;;;;;11.43;7.23;;;4.30;99.90;;;;;;5056190;28;20205;-50
2022/01/08 11:35:04;;;;;;;10.57;6.37;;;4.30;99.90;;;;;;5051644;28;20222;-50
2022/01/08 11:37:32;;;;;;;10.77;6.37;;;4.30;99.90;;;;;;5038339;28;20214;-46
2022/01/08 11:40:04;;;;;;;12.40;7.20;;;4.30;99.90;;;;;;5062162;28;20205;-50
2022/01/08 11:42:35;;;;;;;11.87;6.87;;;4.40;99.90;;;;;;5056127;28;20217;-49
2022/01/08 11:45:04;;;;;;;9.37;6.50;;;4.40;99.90;;;;;;5055534;28;20222;-50
2022/01/08 11:47:31;;;;;;;10.93;6.43;;;4.40;99.90;;;;;;5055812;28;20206;-48
2022/01/08 11:50:00;;;;;;;11.43;6.33;;;4.40;99.90;;;;;;5056577;28;20187;-52
2022/01/08 11:52:28;;;;;;;9.73;6.23;;;4.40;99.90;;;;;;5039500;28;20199;-51
2022/01/08 11:54:56;;;;;;;10.10;6.07;;;4.50;99.90;;;;;;5060532;28;20599;-51
2022/01/08 11:57:25;;;;;;;10.60;7.00;;;4.50;99.90;;;;;;5060429;28;20211;-47
2022/01/08 11:59:56;;;;;;;13.80;5.90;;;4.50;99.90;;;;;;5056278;28;20221;-47
2022/01/08 12:02:35;;;;;;;10.13;6.23;;;4.60;99.90;;;;;;5051721;28;20676;-48
2022/01/08 12:05:02;;;;;;;10.43;6.27;;;4.60;99.90;;;;;;5051060;28;20309;-49
2022/01/08 12:07:36;;;;;;;9.10;7.23;;;4.60;99.90;;;;;;5052191;28;20183;-51
2022/01/08 12:10:18;;;;;;;8.07;6.23;;;4.70;99.90;;;;;;5048532;28;20217;-50
2022/01/08 12:12:57;;;;;;;11.30;6.07;;;4.70;99.90;;;;;;5056098;28;20266;-49
2022/01/08 12:15:48;;;;;;;7.97;6.03;;;4.70;99.90;;;;;;5049719;28;20578;-54
2022/01/08 12:18:18;;;;;;;11.77;6.77;;;4.70;99.90;;;;;;5052919;28;20662;-48
2022/01/08 12:20:47;;;;;;;7.00;5.43;;;4.70;99.90;;;;;;5053126;28;20256;-50
2022/01/08 12:23:30;;;;;;;13.33;6.37;;;4.70;99.90;;;;;;5050296;28;20230;-52
2022/01/08 12:25:59;;;;;;;10.37;6.00;;;4.60;99.90;;;;;;5051463;28;20212;-52
2022/01/08 12:28:53;;;;;;;13.40;5.97;;;4.60;99.90;;;;;;5050226;28;20217;-54
2022/01/08 12:31:31;;;;;;;10.80;6.43;;;4.60;99.90;;;;;;5050656;28;20203;-49
2022/01/08 12:34:20;;;;;;;10.93;6.33;;;4.60;99.90;;;;;;5047549;28;20218;-54
2022/01/08 12:36:55;;;;;;;9.87;6.40;;;4.70;99.90;;;;;;5051974;28;20214;-46
2022/01/08 12:39:54;;;;;;;10.50;5.63;;;4.80;99.90;;;;;;5047178;28;20222;-50
2022/01/08 12:42:51;;;;;;;9.30;5.20;;;4.80;99.90;;;;;;5055559;28;20201;-49
2022/01/08 12:45:20;;;;;;;8.73;5.00;;;4.80;99.90;;;;;;5041872;28;20561;-47
2022/01/08 12:47:50;;;;;;;8.47;5.30;;;4.80;99.90;;;;;;5054590;28;20199;-50
2022/01/08 12:50:23;;;;;;;8.80;4.80;;;4.80;99.90;;;;;;5050961;28;20259;-47
2022/01/08 12:53:12;;;;;;;6.33;5.03;;;4.80;99.90;;;;;;5055659;28;20285;-50
2022/01/08 12:55:42;;;;;;;8.53;5.07;;;4.80;99.90;;;;;;5039633;28;20909;-46
2022/01/08 12:58:16;;;;;;;9.47;5.37;;;4.80;99.90;;;;;;5050031;28;20215;-51
2022/01/08 13:00:56;;;;;;;9.50;5.70;;;4.80;99.90;;;;;;5059595;28;20926;-47
2022/01/08 13:03:25;;;;;;;7.20;4.50;;;4.80;99.90;;;;;;5050360;28;20242;-51
2022/01/08 13:05:53;;;;;;;9.47;5.50;;;4.70;99.90;;;;;;5055670;28;20226;-51
2022/01/08 13:08:24;;;;;;;6.63;5.83;;;4.60;99.90;;;;;;5054622;28;20198;-48
2022/01/08 13:10:57;;;;;;;10.33;5.93;;;4.70;99.90;;;;;;5053408;28;20207;-49
2022/01/08 13:13:24;;;;;;;8.93;5.73;;;4.70;99.90;;;;;;5043354;28;20305;-48
2022/01/08 13:15:51;;;;;;;10.00;6.07;;;4.70;99.90;;;;;;5063094;28;20406;-46
2022/01/08 13:18:22;;;;;;;9.40;6.67;;;4.70;99.90;;;;;;5056601;28;20218;-47
2022/01/08 13:21:00;;;;;;;8.43;5.63;;;4.70;99.90;;;;;;5054957;28;20202;-49